Salem, OR (97306)

2:25 PM PST on February 08, 2016 (GMT -0800)
Battlecreek Watershed | | Change Station
CLOSE
Current Station
Personal Weather Station
Location: Salem, OR
Elevation: 410 ft
Nearby Weather Stations

Elev 410 ft 44.86 °N, 123.03 °W | Updated 10 minutes ago

Clear
Clear
58.7 °F
Feels Like 58.7 °F
N
3.0
Wind Variable Wind from North
Gusts 8.0 mph

Today
High -- | Low -- °F
--% Chance of Precip.
Yesterday
High -- | Low -- °F
Precip. -- in
Pressure 30.30 in
Visibility 10.0 miles
Clouds Clear
Dew Point 46 °F
Humidity 63%
Rainfall 0.00 in
Snow Depth Not available.
7:23 AM 5:30 PM
New Moon, 0% visible
METAR KSLE 082156Z 36011KT 10SM CLR 17/06 A3029 RMK AO2 SLP259 T01670056
Pressure 30.30 in
Visibility 10.0 miles
Clouds Clear
Dew Point 46 °F
Humidity 63%
Rainfall 0.00 in
Snow Depth Not available.
7:23 AM 5:30 PM
New Moon, 0% visible
METAR KSLE 082156Z 36011KT 10SM CLR 17/06 A3029 RMK AO2 SLP259 T01670056

10-Day Weather Forecast

Almanac

Astronomy

Feb. 08, 2016 Rise Set
Actual Time
Civil Twilight
Nautical Twilight
Astronomical Twilight
Moon
Length of Visible Light
Length of Day
Tomorrow will be .
, % of the Moon is Illuminated

Today's Extremes

State Highs State Lows

Community

WunderPhotos

Upload Photos

1,891,518 photos uploaded!

WunderBlog® & News

Nearby

Air Quality

  Air Quality AQ Index Pollutant
Not available.

Snow Depth

Station Depth Elevation

Earthquake Activity

City Distance Mag. Time & Date
Minimum magnitude displayed is 2.5.

Coastal Water Temperatures

Place Temperature

Stations

Nearby Weather Stations

Station Location Temp. Windchill Dew Point Humidity Wind Precip. Elev Updated Type
                   

Watches & Warnings

There are currently no watches in effect.